Time;durP1;ratioP1;P1;durP2;ratioP2;P2;SDS_P1;SDS_P2;PMS_P1;PMS_P2;Temp;Humidity;BMP_temperature;BMP_pressure;BME280_temperature;BME280_humidity;BME280_pressure;Samples;Min_cycle;Max_cycle;Signal;HPM_P1;HPM_P2
2021/06/03 00:00:20;;;;;;;12.30;11.20;;;17.10;62.20;;;;;;5071020;28;20675;-86
2021/06/03 00:02:48;;;;;;;11.33;10.33;;;17.10;61.10;;;;;;5071253;28;20691;-85
2021/06/03 00:05:18;;;;;;;11.20;10.10;;;17.10;62.00;;;;;;5071014;28;20679;-85
2021/06/03 00:07:44;;;;;;;11.33;8.07;;;17.10;61.00;;;;;;5070742;28;21173;-85
2021/06/03 00:10:14;;;;;;;8.63;7.97;;;17.10;61.00;;;;;;5074644;28;20648;-85
2021/06/03 00:12:41;;;;;;;9.83;8.83;;;17.20;61.90;;;;;;5090861;28;20617;-86
2021/06/03 00:15:12;;;;;;;11.10;9.27;;;17.10;62.80;;;;;;5072863;28;20617;-85
2021/06/03 00:17:38;;;;;;;8.00;7.30;;;16.90;62.40;;;;;;5071228;28;21243;-85
2021/06/03 00:20:07;;;;;;;8.13;7.33;;;16.70;62.50;;;;;;5075404;28;20649;-85
2021/06/03 00:22:33;;;;;;;7.80;7.10;;;16.70;62.80;;;;;;5077728;28;20666;-85
2021/06/03 00:25:00;;;;;;;9.90;7.30;;;16.60;64.50;;;;;;5084291;28;20613;-85
2021/06/03 00:27:27;;;;;;;7.93;6.23;;;16.60;64.30;;;;;;5085696;28;20613;-86
2021/06/03 00:29:54;;;;;;;9.47;7.40;;;16.70;65.20;;;;;;5088095;28;21000;-85
2021/06/03 00:32:21;;;;;;;10.30;6.90;;;16.70;64.50;;;;;;5070756;28;20724;-86
2021/06/03 00:34:47;;;;;;;9.20;8.30;;;16.70;64.70;;;;;;5070694;28;21170;-85
2021/06/03 00:37:14;;;;;;;7.30;6.67;;;16.60;65.90;;;;;;5071716;28;20613;-86
2021/06/03 00:39:40;;;;;;;9.57;8.67;;;16.50;66.60;;;;;;5072349;28;20672;-85
2021/06/03 00:42:07;;;;;;;7.97;7.23;;;16.60;65.70;;;;;;5080922;28;20609;-85
2021/06/03 00:44:35;;;;;;;8.87;8.03;;;16.60;66.10;;;;;;5090621;28;20608;-85
2021/06/03 00:47:01;;;;;;;11.53;10.57;;;16.40;66.60;;;;;;5080217;28;20626;-85
2021/06/03 00:49:27;;;;;;;11.43;10.53;;;16.40;65.90;;;;;;5085583;28;20608;-85
2021/06/03 00:51:55;;;;;;;16.33;14.87;;;16.30;66.60;;;;;;5071658;28;20617;-85
2021/06/03 00:54:22;;;;;;;17.50;15.90;;;16.30;66.40;;;;;;5068738;28;20676;-85
2021/06/03 00:56:48;;;;;;;16.13;14.73;;;16.30;66.00;;;;;;5080993;28;20628;-85
2021/06/03 00:59:15;;;;;;;16.90;15.23;;;16.30;67.20;;;;;;5084319;28;20696;-85
2021/06/03 01:01:42;;;;;;;15.40;14.00;;;16.20;67.30;;;;;;5087065;28;20617;-85
2021/06/03 01:04:10;;;;;;;15.07;13.67;;;16.20;68.00;;;;;;5070292;28;21206;-85
2021/06/03 01:06:37;;;;;;;13.00;11.90;;;16.20;69.50;;;;;;5070623;28;20679;-85
2021/06/03 01:09:10;;;;;;;12.67;11.47;;;16.10;70.50;;;;;;5071899;28;21181;-85
2021/06/03 01:11:48;;;;;;;10.87;9.37;;;16.10;69.60;;;;;;5078296;28;20667;-85
2021/06/03 01:14:21;;;;;;;11.47;10.50;;;16.10;70.20;;;;;;5077502;28;21050;-85
2021/06/03 01:16:55;;;;;;;10.03;9.13;;;16.00;69.20;;;;;;5082025;28;21477;-85
2021/06/03 01:19:27;;;;;;;9.57;8.77;;;16.00;69.30;;;;;;5071822;28;20660;-85
2021/06/03 01:21:58;;;;;;;11.07;10.17;;;15.90;69.40;;;;;;5076225;28;20629;-85
2021/06/03 01:24:30;;;;;;;11.70;10.67;;;15.80;69.60;;;;;;5070746;28;20625;-85
2021/06/03 01:26:59;;;;;;;10.17;9.17;;;15.70;70.60;;;;;;5083432;28;20620;-85
2021/06/03 01:29:28;;;;;;;9.70;9.00;;;15.70;70.70;;;;;;5087634;28;20630;-85
2021/06/03 01:31:57;;;;;;;10.27;9.17;;;15.70;70.20;;;;;;5089590;28;20624;-85
2021/06/03 01:34:27;;;;;;;9.30;8.33;;;15.60;69.60;;;;;;5075428;28;21052;-85
2021/06/03 01:36:55;;;;;;;11.80;9.50;;;15.70;71.90;;;;;;5077992;28;20629;-85
2021/06/03 01:39:26;;;;;;;8.00;7.20;;;15.70;72.20;;;;;;5077440;28;20637;-85
2021/06/03 01:41:55;;;;;;;8.00;7.40;;;15.80;71.60;;;;;;5076844;28;20653;-86
2021/06/03 01:44:23;;;;;;;8.00;7.20;;;15.80;71.20;;;;;;5077416;28;20630;-85
2021/06/03 01:46:51;;;;;;;6.53;5.93;;;15.70;72.60;;;;;;5076811;28;21177;-85
2021/06/03 01:49:19;;;;;;;6.30;5.80;;;15.70;73.30;;;;;;5082167;28;21062;-85
2021/06/03 01:51:48;;;;;;;7.37;6.67;;;15.70;71.80;;;;;;5081368;28;20690;-85
2021/06/03 01:54:17;;;;;;;7.10;6.50;;;15.80;72.90;;;;;;5082846;28;21285;-85
2021/06/03 01:56:47;;;;;;;7.33;6.73;;;15.70;75.00;;;;;;5089939;28;20960;-85
2021/06/03 01:59:16;;;;;;;7.20;6.50;;;15.70;74.70;;;;;;5082335;28;21217;-85
2021/06/03 02:01:44;;;;;;;7.20;6.60;;;15.70;73.40;;;;;;5093667;28;20759;-85
2021/06/03 02:04:13;;;;;;;7.70;6.90;;;15.70;73.00;;;;;;5079278;28;20660;-85
2021/06/03 02:06:42;;;;;;;6.23;5.73;;;15.60;73.10;;;;;;5086668;28;20624;-85
2021/06/03 02:09:11;;;;;;;7.97;7.37;;;15.50;73.50;;;;;;5095893;28;20663;-85
2021/06/03 02:11:43;;;;;;;7.37;6.57;;;15.60;73.20;;;;;;5082654;28;20753;-85
2021/06/03 02:14:16;;;;;;;7.50;6.80;;;15.60;73.20;;;;;;5076651;28;20621;-86
2021/06/03 02:16:56;;;;;;;6.60;6.00;;;15.60;73.40;;;;;;5092636;28;20977;-85
2021/06/03 02:19:31;;;;;;;6.83;6.23;;;15.60;73.90;;;;;;5093737;28;21042;-85
2021/06/03 02:22:01;;;;;;;5.90;5.40;;;15.60;74.50;;;;;;5082699;28;20628;-85
2021/06/03 02:24:29;;;;;;;6.50;5.90;;;15.60;74.40;;;;;;5076145;28;20982;-85
2021/06/03 02:26:57;;;;;;;6.40;5.90;;;15.70;75.20;;;;;;5095077;28;20638;-85
2021/06/03 02:29:25;;;;;;;6.60;6.10;;;15.80;75.50;;;;;;5092566;28;20630;-85
2021/06/03 02:31:52;;;;;;;6.57;6.07;;;15.90;76.00;;;;;;5093931;28;21094;-85
2021/06/03 02:34:19;;;;;;;6.63;6.07;;;15.90;76.20;;;;;;5095929;28;20620;-85
2021/06/03 02:36:46;;;;;;;6.13;5.53;;;16.00;76.40;;;;;;5094855;28;20620;-85
2021/06/03 02:39:12;;;;;;;8.37;5.77;;;16.00;76.60;;;;;;5087392;28;20648;-84
2021/06/03 02:41:39;;;;;;;8.30;6.27;;;16.00;76.60;;;;;;5077854;28;20658;-85
2021/06/03 02:44:06;;;;;;;6.67;6.07;;;16.10;76.60;;;;;;5083925;28;21270;-85
2021/06/03 02:46:34;;;;;;;6.87;5.10;;;16.10;76.40;;;;;;5081637;28;20672;-84
2021/06/03 02:49:00;;;;;;;5.80;5.30;;;16.20;77.30;;;;;;5081406;28;20667;-85
2021/06/03 02:51:26;;;;;;;6.07;5.57;;;16.30;76.30;;;;;;5089155;28;20619;-85
2021/06/03 02:53:53;;;;;;;7.23;6.63;;;16.40;76.10;;;;;;5093383;28;20678;-85
2021/06/03 02:56:19;;;;;;;6.70;6.10;;;16.40;76.00;;;;;;5083035;28;20617;-84
2021/06/03 02:58:46;;;;;;;8.30;6.87;;;16.50;75.60;;;;;;5081836;28;20633;-84
2021/06/03 03:01:13;;;;;;;7.40;6.57;;;16.50;75.90;;;;;;5084313;28;20753;-85
2021/06/03 03:03:41;;;;;;;6.50;5.90;;;16.50;75.10;;;;;;5087132;28;20647;-85
2021/06/03 03:06:07;;;;;;;6.67;6.07;;;16.60;74.40;;;;;;5086609;28;20613;-84
2021/06/03 03:08:34;;;;;;;6.50;5.80;;;16.60;74.10;;;;;;5072226;28;20605;-84
2021/06/03 03:11:01;;;;;;;7.27;6.33;;;16.70;74.70;;;;;;5074040;28;20674;-84
2021/06/03 03:13:28;;;;;;;7.90;7.20;;;16.70;74.50;;;;;;5072910;28;20650;-84
2021/06/03 03:15:55;;;;;;;5.93;5.43;;;16.60;74.90;;;;;;5080255;28;20718;-84
2021/06/03 03:18:21;;;;;;;6.57;5.93;;;16.50;74.60;;;;;;5086995;28;21108;-84
2021/06/03 03:20:49;;;;;;;7.73;6.27;;;16.60;76.00;;;;;;5072579;28;21104;-85
2021/06/03 03:23:16;;;;;;;8.73;6.17;;;16.60;75.90;;;;;;5080708;28;20663;-84
2021/06/03 03:25:43;;;;;;;6.13;5.63;;;16.60;75.60;;;;;;5076465;28;20625;-84
2021/06/03 03:28:10;;;;;;;7.10;6.40;;;16.50;76.60;;;;;;5085617;28;20613;-84
2021/06/03 03:30:41;;;;;;;7.10;6.50;;;16.50;77.00;;;;;;5080470;28;20617;-84
2021/06/03 03:33:09;;;;;;;7.00;6.30;;;16.40;78.00;;;;;;5092320;28;20628;-84
2021/06/03 03:35:36;;;;;;;6.07;5.57;;;16.40;78.10;;;;;;5090162;28;20612;-84
2021/06/03 03:38:04;;;;;;;6.50;6.00;;;16.40;78.20;;;;;;5072375;28;20621;-84
2021/06/03 03:40:30;;;;;;;6.13;5.67;;;16.50;78.30;;;;;;5079233;28;20692;-84
2021/06/03 03:42:57;;;;;;;6.03;5.53;;;16.40;78.30;;;;;;5071727;28;20617;-84
2021/06/03 03:45:26;;;;;;;6.30;5.80;;;16.40;78.20;;;;;;5071974;28;21185;-84
2021/06/03 03:47:53;;;;;;;6.40;5.87;;;16.40;78.50;;;;;;5072229;28;20618;-84
2021/06/03 03:50:20;;;;;;;6.30;5.80;;;16.50;78.20;;;;;;5078717;28;21189;-84
2021/06/03 03:52:47;;;;;;;7.17;6.60;;;16.50;79.50;;;;;;5078326;28;20651;-84
2021/06/03 03:55:16;;;;;;;6.80;6.20;;;16.50;79.40;;;;;;5071606;28;20664;-84
2021/06/03 03:57:43;;;;;;;7.83;7.03;;;16.60;78.50;;;;;;5072616;28;20684;-84
2021/06/03 04:00:13;;;;;;;6.30;5.90;;;16.70;79.20;;;;;;5078016;28;20689;-84
2021/06/03 04:02:40;;;;;;;5.87;5.27;;;16.70;79.40;;;;;;5080086;28;20620;-84
2021/06/03 04:05:07;;;;;;;6.63;6.07;;;16.70;79.10;;;;;;5078063;28;20629;-84
2021/06/03 04:07:37;;;;;;;6.87;6.37;;;16.70;79.20;;;;;;5072603;28;20621;-84
2021/06/03 04:10:05;;;;;;;6.43;5.93;;;16.70;79.70;;;;;;5079230;28;20637;-84
2021/06/03 04:12:33;;;;;;;6.70;6.20;;;16.80;79.40;;;;;;5072069;28;20667;-84
2021/06/03 04:14:59;;;;;;;6.60;6.10;;;16.70;79.60;;;;;;5070027;28;20672;-84
2021/06/03 04:17:26;;;;;;;6.53;5.97;;;16.80;79.60;;;;;;5071559;28;20736;-83
2021/06/03 04:19:52;;;;;;;6.20;5.70;;;16.80;79.20;;;;;;5071014;28;20653;-83
2021/06/03 04:22:18;;;;;;;6.63;6.03;;;16.80;80.10;;;;;;5079880;28;20640;-83
2021/06/03 04:24:45;;;;;;;6.17;5.57;;;16.80;81.00;;;;;;5077976;28;20691;-84
2021/06/03 04:27:11;;;;;;;6.27;5.73;;;16.80;81.50;;;;;;5071007;28;21424;-84
2021/06/03 04:29:40;;;;;;;6.03;5.53;;;16.80;80.90;;;;;;5070789;28;20628;-84
2021/06/03 04:32:07;;;;;;;7.13;6.43;;;16.80;80.60;;;;;;5071208;28;20628;-84
2021/06/03 04:34:34;;;;;;;6.60;6.00;;;16.80;82.20;;;;;;5070228;28;20640;-83
2021/06/03 04:37:01;;;;;;;6.10;5.60;;;16.80;82.10;;;;;;5070845;28;21209;-84
2021/06/03 04:39:28;;;;;;;5.87;5.30;;;16.80;83.20;;;;;;5071108;28;20763;-83
2021/06/03 04:41:55;;;;;;;6.50;6.00;;;16.90;81.60;;;;;;5069974;28;20625;-83
2021/06/03 04:44:21;;;;;;;6.07;5.53;;;16.90;81.80;;;;;;5070672;28;20680;-83
2021/06/03 04:46:50;;;;;;;6.20;5.73;;;16.80;82.40;;;;;;5070541;28;20766;-84
2021/06/03 04:49:17;;;;;;;6.53;5.90;;;16.90;81.70;;;;;;5070283;28;20691;-84
2021/06/03 04:51:43;;;;;;;6.80;6.30;;;17.00;81.40;;;;;;5073541;28;20630;-84
2021/06/03 04:54:10;;;;;;;7.27;6.67;;;17.00;82.80;;;;;;5080893;28;20678;-83
2021/06/03 04:56:36;;;;;;;6.33;5.80;;;17.00;83.00;;;;;;5088635;28;21281;-84
2021/06/03 04:59:03;;;;;;;7.10;6.60;;;17.00;83.60;;;;;;5083836;28;20731;-83
2021/06/03 05:01:30;;;;;;;6.57;6.07;;;17.00;84.80;;;;;;5080159;28;20613;-83
2021/06/03 05:03:58;;;;;;;7.03;6.43;;;17.00;85.00;;;;;;5089869;28;21225;-83
2021/06/03 05:06:24;;;;;;;5.93;5.53;;;17.00;85.70;;;;;;5087963;28;20654;-83
2021/06/03 05:08:51;;;;;;;6.23;5.70;;;17.00;83.20;;;;;;5069644;28;20625;-83
2021/06/03 05:11:17;;;;;;;6.30;5.80;;;17.10;82.60;;;;;;5071750;28;20617;-83
2021/06/03 05:13:44;;;;;;;6.20;5.70;;;17.20;81.20;;;;;;5070567;28;20656;-83
2021/06/03 05:16:10;;;;;;;6.20;5.60;;;17.30;80.80;;;;;;5081928;28;20656;-83
2021/06/03 05:18:38;;;;;;;7.93;5.67;;;17.40;82.90;;;;;;5080057;28;20669;-83
2021/06/03 05:21:06;;;;;;;6.13;5.63;;;17.50;81.60;;;;;;5074413;28;21243;-83
2021/06/03 05:23:33;;;;;;;6.60;6.10;;;17.50;80.80;;;;;;5081052;28;20675;-83
2021/06/03 05:25:59;;;;;;;5.77;5.37;;;17.70;80.90;;;;;;5079917;28;20634;-83
2021/06/03 05:28:25;;;;;;;5.73;5.10;;;17.70;80.30;;;;;;5080338;28;20713;-83
2021/06/03 05:30:52;;;;;;;9.00;6.13;;;17.90;79.80;;;;;;5087286;28;20664;-83
2021/06/03 05:33:19;;;;;;;6.00;5.50;;;18.00;78.80;;;;;;5074400;28;20644;-84
2021/06/03 05:35:45;;;;;;;5.13;4.73;;;18.10;80.00;;;;;;5069549;28;20645;-83
2021/06/03 05:38:13;;;;;;;6.13;5.60;;;18.30;79.40;;;;;;5089271;28;20681;-83
2021/06/03 05:40:40;;;;;;;5.30;4.90;;;18.40;78.60;;;;;;5086918;28;20661;-83
2021/06/03 05:43:06;;;;;;;5.07;4.67;;;18.60;78.00;;;;;;5084631;28;20643;-83
2021/06/03 05:45:32;;;;;;;5.03;4.63;;;18.70;77.50;;;;;;5081284;28;20643;-83
2021/06/03 05:47:59;;;;;;;5.37;4.97;;;18.90;78.60;;;;;;5088237;28;20632;-83
2021/06/03 05:50:26;;;;;;;6.37;4.40;;;19.00;77.80;;;;;;5090338;28;20994;-83
2021/06/03 05:52:52;;;;;;;5.47;4.93;;;19.00;77.90;;;;;;5082820;28;20659;-83
2021/06/03 05:55:21;;;;;;;4.50;4.00;;;19.00;77.70;;;;;;5078302;28;20704;-83
2021/06/03 05:57:48;;;;;;;5.00;4.60;;;19.00;79.40;;;;;;5088688;28;21191;-83
2021/06/03 06:00:16;;;;;;;4.70;4.30;;;19.00;79.60;;;;;;5073558;28;20732;-83
2021/06/03 06:02:47;;;;;;;4.90;4.50;;;18.90;80.70;;;;;;5084799;28;20639;-83
2021/06/03 06:07:58;;;;;;;5.27;4.87;;;19.00;80.30;;;;;;5089123;28;20631;-83
2021/06/03 06:10:26;;;;;;;6.93;4.50;;;18.90;82.10;;;;;;5079671;28;20631;-83
2021/06/03 06:12:53;;;;;;;4.30;4.00;;;18.80;81.00;;;;;;5073611;28;20629;-82
2021/06/03 06:15:19;;;;;;;4.70;4.40;;;18.80;81.10;;;;;;5074115;28;20663;-82
2021/06/03 06:17:46;;;;;;;4.03;3.73;;;18.80;81.10;;;;;;5090026;28;20753;-83
2021/06/03 06:20:13;;;;;;;4.77;4.37;;;18.80;80.20;;;;;;5070836;28;21267;-83
2021/06/03 06:22:40;;;;;;;4.80;4.40;;;18.80;79.80;;;;;;5077455;28;20674;-82
2021/06/03 06:25:08;;;;;;;4.63;4.20;;;18.80;81.60;;;;;;5076812;28;20643;-83
2021/06/03 06:27:36;;;;;;;5.00;4.60;;;18.80;80.10;;;;;;5091736;28;20627;-83
2021/06/03 06:30:05;;;;;;;4.50;3.80;;;19.00;79.20;;;;;;5076271;28;20627;-82
2021/06/03 06:32:31;;;;;;;4.60;4.27;;;19.00;78.40;;;;;;5092445;28;20660;-83
2021/06/03 06:34:57;;;;;;;4.90;4.50;;;19.00;79.10;;;;;;5089869;28;20633;-83
2021/06/03 06:37:24;;;;;;;4.63;4.23;;;19.00;78.40;;;;;;5074364;28;20624;-83
2021/06/03 06:39:50;;;;;;;4.40;4.10;;;19.00;78.20;;;;;;5076828;28;20664;-83
2021/06/03 06:42:17;;;;;;;5.47;4.97;;;19.00;78.40;;;;;;5092071;28;20632;-83
2021/06/03 06:44:44;;;;;;;5.30;4.80;;;19.00;79.50;;;;;;5093148;28;20633;-82
2021/06/03 06:47:11;;;;;;;5.20;4.80;;;19.00;78.00;;;;;;5077394;28;20684;-82
2021/06/03 06:49:38;;;;;;;5.33;4.73;;;19.10;78.70;;;;;;5078306;28;20679;-82
2021/06/03 06:52:05;;;;;;;5.07;4.67;;;19.00;78.30;;;;;;5076375;28;20626;-82
2021/06/03 06:54:31;;;;;;;4.43;4.13;;;19.00;78.20;;;;;;5072234;28;20714;-83
2021/06/03 06:56:58;;;;;;;4.93;4.53;;;19.10;78.20;;;;;;5087328;28;20625;-83
2021/06/03 06:59:25;;;;;;;5.30;4.90;;;19.20;77.70;;;;;;5083047;28;20747;-83
2021/06/03 07:01:52;;;;;;;5.77;5.13;;;19.30;78.30;;;;;;5084027;28;21188;-83
2021/06/03 07:04:19;;;;;;;4.70;4.30;;;19.40;77.80;;;;;;5082787;28;20737;-84
2021/06/03 07:06:46;;;;;;;5.07;4.67;;;19.40;77.40;;;;;;5077104;28;20675;-84
2021/06/03 07:09:13;;;;;;;5.00;4.33;;;19.40;77.90;;;;;;5082031;28;20617;-83
2021/06/03 07:11:39;;;;;;;5.60;5.03;;;19.50;77.60;;;;;;5081400;28;20614;-84
2021/06/03 07:14:06;;;;;;;4.50;4.20;;;19.60;78.00;;;;;;5076145;28;20644;-84
2021/06/03 07:16:32;;;;;;;4.47;4.17;;;19.70;76.70;;;;;;5087026;28;20674;-84
2021/06/03 07:19:03;;;;;;;5.23;4.73;;;19.70;78.10;;;;;;5073754;28;21394;-84
2021/06/03 07:21:29;;;;;;;5.57;4.90;;;20.00;77.40;;;;;;5080764;28;20671;-85
2021/06/03 07:23:55;;;;;;;4.27;3.97;;;20.10;76.30;;;;;;5090584;28;20672;-84
2021/06/03 07:26:23;;;;;;;3.83;3.53;;;20.20;76.40;;;;;;5091801;28;20648;-84
2021/06/03 07:28:50;;;;;;;4.30;4.00;;;20.40;76.30;;;;;;5087930;28;21018;-84
2021/06/03 07:31:17;;;;;;;4.90;4.50;;;20.60;75.40;;;;;;5083816;28;20619;-84
2021/06/03 07:33:43;;;;;;;4.17;3.87;;;20.80;75.50;;;;;;5092190;28;20672;-84
2021/06/03 07:36:11;;;;;;;4.73;4.30;;;21.00;74.60;;;;;;5080367;28;21257;-84
2021/06/03 07:38:37;;;;;;;4.60;4.20;;;21.10;73.10;;;;;;5072787;28;20657;-84
2021/06/03 07:41:04;;;;;;;4.10;3.80;;;21.20;73.80;;;;;;5083179;28;20660;-84
2021/06/03 07:43:31;;;;;;;4.27;3.90;;;21.30;72.90;;;;;;5082252;28;20657;-84
2021/06/03 07:45:58;;;;;;;3.80;3.40;;;21.50;72.30;;;;;;5072675;28;20629;-84
2021/06/03 07:48:25;;;;;;;4.23;3.63;;;21.80;73.00;;;;;;5081812;28;20634;-84
2021/06/03 07:50:51;;;;;;;3.30;3.07;;;21.80;72.70;;;;;;5079706;28;20633;-84
2021/06/03 07:53:19;;;;;;;3.47;3.10;;;22.00;71.50;;;;;;5092546;28;20648;-84
2021/06/03 07:55:45;;;;;;;4.30;4.00;;;21.90;69.80;;;;;;5074374;28;20625;-84
2021/06/03 07:58:16;;;;;;;5.73;3.40;;;22.00;70.20;;;;;;5072602;28;20649;-84
2021/06/03 08:00:43;;;;;;;5.07;2.80;;;22.20;69.50;;;;;;5090371;28;20656;-84
2021/06/03 08:03:11;;;;;;;3.30;2.80;;;22.40;69.40;;;;;;5076728;28;20739;-84
2021/06/03 08:05:38;;;;;;;3.13;2.93;;;22.60;68.30;;;;;;5074846;28;20989;-84
2021/06/03 08:08:05;;;;;;;2.93;2.73;;;22.60;66.00;;;;;;5092359;28;20671;-84
2021/06/03 08:10:35;;;;;;;3.73;3.17;;;22.40;65.60;;;;;;5090543;28;20636;-84
2021/06/03 08:13:03;;;;;;;4.00;3.30;;;22.60;66.70;;;;;;5091809;28;20655;-84
2021/06/03 08:15:31;;;;;;;3.53;3.23;;;22.90;65.60;;;;;;5085323;28;21255;-84
2021/06/03 08:17:58;;;;;;;3.30;3.00;;;22.90;65.00;;;;;;5084994;28;20636;-84
2021/06/03 08:20:29;;;;;;;3.23;2.37;;;23.10;65.70;;;;;;5071733;28;20674;-86
2021/06/03 08:22:56;;;;;;;2.80;2.60;;;23.20;64.10;;;;;;5078835;28;20628;-84
2021/06/03 08:25:23;;;;;;;3.13;2.93;;;23.20;63.40;;;;;;5079262;28;20636;-84
2021/06/03 08:27:51;;;;;;;3.33;2.60;;;23.30;63.20;;;;;;5091752;28;20677;-84
2021/06/03 08:30:18;;;;;;;3.00;2.70;;;23.40;61.60;;;;;;5083380;28;20662;-85
2021/06/03 08:32:47;;;;;;;3.40;3.20;;;23.70;62.20;;;;;;5081063;28;20630;-85
2021/06/03 08:35:16;;;;;;;5.90;3.17;;;23.90;60.30;;;;;;5078013;28;20791;-84
2021/06/03 08:37:44;;;;;;;3.47;3.17;;;24.10;60.30;;;;;;5082337;28;20629;-84
2021/06/03 08:40:13;;;;;;;5.50;3.00;;;24.20;60.70;;;;;;5083084;28;20688;-84
2021/06/03 08:42:39;;;;;;;3.23;2.93;;;24.30;60.10;;;;;;5075924;28;20621;-84
2021/06/03 08:45:09;;;;;;;4.10;3.53;;;24.40;59.60;;;;;;5090134;28;20951;-84
2021/06/03 08:47:35;;;;;;;3.33;3.03;;;24.50;60.10;;;;;;5087550;28;20628;-84
2021/06/03 08:50:04;;;;;;;3.63;3.33;;;24.80;60.60;;;;;;5087161;28;20641;-84
2021/06/03 08:52:31;;;;;;;3.63;3.33;;;25.00;59.10;;;;;;5071289;28;20756;-84
2021/06/03 08:54:58;;;;;;;4.57;3.30;;;24.90;60.50;;;;;;5072356;28;20621;-84
2021/06/03 08:57:25;;;;;;;3.50;3.30;;;25.00;59.30;;;;;;5082213;28;20656;-85
2021/06/03 08:59:52;;;;;;;4.73;4.13;;;25.00;60.60;;;;;;5086744;28;20691;-85
2021/06/03 09:02:20;;;;;;;3.53;3.23;;;25.00;59.70;;;;;;5080133;28;20644;-84
2021/06/03 09:04:47;;;;;;;4.17;3.77;;;25.20;59.20;;;;;;5090109;28;20637;-84
2021/06/03 09:07:31;;;;;;;3.20;3.00;;;25.40;58.20;;;;;;5086331;28;20636;-84
2021/06/03 09:10:17;;;;;;;4.33;3.77;;;25.50;59.30;;;;;;5079321;28;20676;-84
2021/06/03 09:13:06;;;;;;;3.80;3.50;;;25.70;59.50;;;;;;5075833;28;20620;-86
2021/06/03 09:15:32;;;;;;;3.10;2.90;;;25.90;58.10;;;;;;5089709;28;20663;-84
2021/06/03 09:18:02;;;;;;;3.53;3.33;;;25.80;57.70;;;;;;5088156;28;20620;-84
2021/06/03 09:20:29;;;;;;;3.90;3.43;;;25.90;57.40;;;;;;5087151;28;20664;-84
2021/06/03 09:22:55;;;;;;;3.77;3.47;;;25.90;58.30;;;;;;5075555;28;20628;-83
2021/06/03 09:25:38;;;;;;;5.50;3.37;;;26.00;57.70;;;;;;5086328;28;20629;-84
2021/06/03 09:28:24;;;;;;;3.87;3.50;;;26.10;56.80;;;;;;5073630;28;20673;-84
2021/06/03 09:31:00;;;;;;;3.77;3.47;;;25.80;57.40;;;;;;5088390;28;20636;-84
2021/06/03 09:33:40;;;;;;;5.67;3.80;;;25.90;57.10;;;;;;5090926;28;20627;-84
2021/06/03 09:36:09;;;;;;;3.83;3.63;;;25.70;56.80;;;;;;5079739;28;20657;-84
2021/06/03 09:38:36;;;;;;;3.70;3.40;;;25.70;56.70;;;;;;5070512;28;20622;-84
2021/06/03 09:41:03;;;;;;;4.23;3.83;;;25.80;56.30;;;;;;5085644;28;20704;-84
2021/06/03 09:43:29;;;;;;;4.03;3.73;;;25.40;56.40;;;;;;5077354;28;20620;-84
2021/06/03 09:45:58;;;;;;;3.60;3.30;;;25.20;56.50;;;;;;5069900;28;20612;-85
2021/06/03 09:48:40;;;;;;;3.60;3.37;;;25.20;59.20;;;;;;5078191;28;20958;-84
2021/06/03 09:51:24;;;;;;;2.90;2.70;;;24.90;57.40;;;;;;5071508;28;20622;-85
2021/06/03 09:53:53;;;;;;;2.87;2.70;;;25.00;57.50;;;;;;5077147;28;20632;-84
2021/06/03 09:56:21;;;;;;;3.23;2.60;;;25.40;55.80;;;;;;5081316;28;20663;-84
2021/06/03 09:58:48;;;;;;;2.70;2.50;;;25.80;55.50;;;;;;5080665;28;20617;-84
2021/06/03 10:01:14;;;;;;;2.70;2.50;;;26.10;55.60;;;;;;5081073;28;21313;-84
2021/06/03 10:03:51;;;;;;;2.40;2.20;;;26.50;54.00;;;;;;5093627;28;20686;-85
2021/06/03 10:06:18;;;;;;;2.50;2.30;;;26.70;53.00;;;;;;5083825;28;20662;-85
2021/06/03 10:08:48;;;;;;;2.70;2.50;;;27.00;52.70;;;;;;5092228;28;20613;-84
2021/06/03 10:11:46;;;;;;;2.80;2.60;;;26.80;52.90;;;;;;5083134;28;20639;-84
2021/06/03 10:14:14;;;;;;;2.73;2.53;;;26.90;53.40;;;;;;5074509;28;20841;-85
2021/06/03 10:16:40;;;;;;;3.80;2.80;;;26.90;52.40;;;;;;5086804;28;20629;-84
2021/06/03 10:19:19;;;;;;;2.17;2.07;;;27.00;52.40;;;;;;5092949;28;20705;-85
2021/06/03 10:22:11;;;;;;;2.70;2.50;;;27.10;51.50;;;;;;5072970;28;20714;-84
2021/06/03 10:25:12;;;;;;;4.07;2.70;;;27.20;51.50;;;;;;5087360;28;20628;-84
2021/06/03 10:27:40;;;;;;;2.60;2.40;;;27.20;51.50;;;;;;5065953;28;21248;-85
2021/06/03 10:30:11;;;;;;;2.70;2.50;;;27.20;52.10;;;;;;5077408;28;20682;-84
2021/06/03 10:32:39;;;;;;;6.27;2.50;;;26.80;51.80;;;;;;5087561;28;21195;-84
2021/06/03 10:35:10;;;;;;;2.90;2.20;;;27.20;51.90;;;;;;5085978;28;20629;-84
2021/06/03 10:37:38;;;;;;;3.03;1.73;;;27.50;50.90;;;;;;5075485;28;20621;-84
2021/06/03 10:40:08;;;;;;;2.43;2.23;;;27.50;49.40;;;;;;5085854;28;20652;-84
2021/06/03 10:42:35;;;;;;;3.10;2.80;;;27.60;49.80;;;;;;5073447;28;20618;-84
2021/06/03 10:45:05;;;;;;;2.97;2.77;;;27.90;50.50;;;;;;5075102;28;20671;-84
2021/06/03 10:47:32;;;;;;;3.17;2.97;;;28.10;50.00;;;;;;5085896;28;20630;-84
2021/06/03 10:50:00;;;;;;;3.00;2.80;;;28.40;49.80;;;;;;5078963;28;20983;-84
2021/06/03 10:52:28;;;;;;;3.40;3.20;;;28.50;49.80;;;;;;5085381;28;20771;-86
2021/06/03 10:54:56;;;;;;;2.60;2.20;;;28.70;49.80;;;;;;5077350;28;20659;-84
2021/06/03 10:57:24;;;;;;;2.70;2.50;;;28.70;49.90;;;;;;5078031;28;20687;-84
2021/06/03 10:59:51;;;;;;;2.37;2.27;;;28.60;48.50;;;;;;5073144;28;20663;-84
2021/06/03 11:02:18;;;;;;;2.70;2.60;;;28.70;50.40;;;;;;5076864;28;20619;-84
2021/06/03 11:04:46;;;;;;;2.33;2.23;;;28.70;49.00;;;;;;5079045;28;20620;-84
2021/06/03 11:07:13;;;;;;;3.00;2.80;;;28.90;49.10;;;;;;5077976;28;20616;-84
2021/06/03 11:09:44;;;;;;;2.73;2.53;;;28.70;49.30;;;;;;5092719;28;20738;-84
2021/06/03 11:12:17;;;;;;;2.60;2.37;;;28.90;48.70;;;;;;5074048;28;20637;-85
2021/06/03 11:15:10;;;;;;;2.80;2.60;;;28.80;49.30;;;;;;5071874;28;21227;-85
2021/06/03 11:17:56;;;;;;;2.20;2.10;;;29.20;47.80;;;;;;5062273;28;20633;-85
2021/06/03 11:20:42;;;;;;;2.73;2.53;;;28.40;48.10;;;;;;5070993;28;20692;-84
2021/06/03 11:23:44;;;;;;;2.63;2.43;;;28.20;49.70;;;;;;5071022;28;20657;-84
2021/06/03 11:26:51;;;;;;;2.90;2.70;;;28.90;48.90;;;;;;5071642;28;20628;-84
2021/06/03 11:29:21;;;;;;;2.97;2.77;;;29.40;50.00;;;;;;5072268;28;20628;-84
2021/06/03 11:31:51;;;;;;;3.30;3.00;;;28.90;52.00;;;;;;5070399;28;20657;-84
2021/06/03 11:34:19;;;;;;;2.93;2.73;;;29.20;52.10;;;;;;5072351;28;20984;-84
2021/06/03 11:36:57;;;;;;;3.30;3.10;;;29.80;53.00;;;;;;5071657;28;20624;-84
2021/06/03 11:39:42;;;;;;;2.60;2.43;;;29.50;51.40;;;;;;5070377;28;20632;-84
2021/06/03 11:42:28;;;;;;;4.43;2.77;;;29.80;49.70;;;;;;5090595;28;20656;-84
2021/06/03 11:45:16;;;;;;;2.40;2.20;;;30.10;49.30;;;;;;5070972;28;21209;-84
2021/06/03 11:48:12;;;;;;;2.90;2.50;;;30.80;49.00;;;;;;5084056;28;20671;-84
2021/06/03 11:50:47;;;;;;;3.20;3.00;;;30.90;48.00;;;;;;5069294;28;20633;-84
2021/06/03 11:53:16;;;;;;;3.13;2.93;;;30.80;47.50;;;;;;5070843;28;20624;-84
2021/06/03 11:55:44;;;;;;;3.17;2.97;;;30.60;47.70;;;;;;5078534;28;20675;-84
2021/06/03 11:58:31;;;;;;;3.27;2.67;;;29.30;48.50;;;;;;5080594;28;20637;-84
2021/06/03 12:01:01;;;;;;;2.70;2.50;;;28.80;48.90;;;;;;5076628;28;21342;-84
2021/06/03 12:03:37;;;;;;;3.90;3.20;;;28.30;50.50;;;;;;5081003;28;20617;-84
2021/06/03 12:06:08;;;;;;;3.40;3.20;;;28.00;50.50;;;;;;5086662;28;20635;-85
2021/06/03 12:08:42;;;;;;;3.00;2.80;;;27.80;51.30;;;;;;5071995;28;21215;-85
2021/06/03 12:11:12;;;;;;;3.20;3.00;;;27.70;52.30;;;;;;5077260;28;21230;-85
2021/06/03 12:13:41;;;;;;;3.97;3.00;;;27.00;52.50;;;;;;5072799;28;20626;-85
2021/06/03 12:16:08;;;;;;;3.70;2.57;;;26.70;53.90;;;;;;5071411;28;21042;-85
2021/06/03 12:18:37;;;;;;;2.53;2.33;;;26.60;53.50;;;;;;5073516;28;20620;-85
2021/06/03 12:21:05;;;;;;;3.30;3.10;;;26.70;54.20;;;;;;5082780;28;20647;-85
2021/06/03 12:23:31;;;;;;;3.30;3.00;;;26.90;54.50;;;;;;5084652;28;20750;-86
2021/06/03 12:25:57;;;;;;;4.43;3.93;;;26.80;54.40;;;;;;5071440;28;20206;-85
2021/06/03 12:28:24;;;;;;;3.10;2.90;;;26.90;53.80;;;;;;5071414;28;20785;-87
2021/06/03 12:30:52;;;;;;;2.80;2.60;;;26.90;53.70;;;;;;5080664;28;20281;-89
2021/06/03 12:33:25;;;;;;;3.20;3.00;;;26.90;54.10;;;;;;5091644;28;20624;-87
2021/06/03 12:35:56;;;;;;;4.77;2.40;;;26.70;54.80;;;;;;5087736;28;20632;-86
2021/06/03 12:38:29;;;;;;;4.87;3.40;;;26.50;54.30;;;;;;5091025;28;20621;-86
2021/06/03 12:40:57;;;;;;;5.37;2.87;;;26.20;54.90;;;;;;5088287;28;20656;-86
2021/06/03 12:43:23;;;;;;;5.13;3.53;;;25.60;56.80;;;;;;5081790;28;20660;-87
2021/06/03 12:45:51;;;;;;;3.63;3.27;;;25.30;57.30;;;;;;5090602;28;20613;-86
2021/06/03 12:48:17;;;;;;;4.10;3.30;;;25.30;58.10;;;;;;5083325;28;20678;-86
2021/06/03 12:50:46;;;;;;;3.50;3.20;;;25.20;59.80;;;;;;5094571;28;20969;-85
2021/06/03 12:53:15;;;;;;;4.07;3.20;;;24.90;59.40;;;;;;5111867;28;20728;-86
2021/06/03 12:55:41;;;;;;;3.43;3.03;;;24.80;59.00;;;;;;5111137;28;20611;-86
2021/06/03 12:58:10;;;;;;;3.20;3.00;;;24.50;58.90;;;;;;5111403;28;20626;-86